Time;durP1;ratioP1;P1;durP2;ratioP2;P2;SDS_P1;SDS_P2;PMS_P1;PMS_P2;Temp;Humidity;BMP_temperature;BMP_pressure;BME280_temperature;BME280_humidity;BME280_pressure;Samples;Min_cycle;Max_cycle;Signal;HPM_P1;HPM_P2
2021/12/24 00:00:40;;;;;;;18.17;10.05;;;-2.40;99.90;;;;;;5029636;28;20213;-73
2021/12/24 00:03:06;;;;;;;25.55;9.50;;;-2.30;99.90;;;;;;5029915;28;20174;-74
2021/12/24 00:05:34;;;;;;;18.20;9.15;;;-2.20;99.90;;;;;;5029880;28;20225;-74
2021/12/24 00:08:00;;;;;;;17.15;8.35;;;-2.10;99.90;;;;;;5029680;28;20200;-75
2021/12/24 00:10:27;;;;;;;18.83;8.82;;;-2.20;99.90;;;;;;5029486;28;20174;-74
2021/12/24 00:13:04;;;;;;;26.90;10.02;;;-2.20;99.90;;;;;;5029646;28;20273;-75
2021/12/24 00:18:27;;;;;;;19.77;8.32;;;-2.20;99.90;;;;;;5029770;28;20194;-74
2021/12/24 00:36:50;;;;;;;18.20;9.25;;;-2.30;99.90;;;;;;5029373;28;20208;-74
2021/12/24 00:39:16;;;;;;;24.15;10.13;;;-2.30;99.90;;;;;;5029288;28;20214;-74
2021/12/24 00:41:42;;;;;;;18.08;8.50;;;-2.30;99.90;;;;;;5029307;28;20204;-74
2021/12/24 00:44:08;;;;;;;15.65;8.60;;;-2.30;99.90;;;;;;5029351;28;20177;-74
2021/12/24 00:46:34;;;;;;;24.00;10.85;;;-2.30;99.90;;;;;;5011644;28;20224;-74
2021/12/24 00:49:01;;;;;;;24.38;11.23;;;-2.30;99.90;;;;;;5011569;28;20181;-74
2021/12/24 00:51:53;;;;;;;23.17;9.30;;;-2.30;99.90;;;;;;5029167;28;20201;-74
2021/12/24 00:56:59;;;;;;;20.88;9.68;;;-2.40;99.90;;;;;;5029482;28;20349;-74
2021/12/24 00:59:24;;;;;;;19.30;10.13;;;-2.40;99.90;;;;;;5029105;28;20206;-74
2021/12/24 01:01:50;;;;;;;25.95;11.10;;;-2.50;99.90;;;;;;5029056;28;20208;-74
2021/12/24 01:04:17;;;;;;;24.27;10.30;;;-2.60;99.90;;;;;;5029266;28;20167;-74
2021/12/24 01:06:44;;;;;;;15.00;9.85;;;-2.60;99.90;;;;;;5029142;28;20163;-73
2021/12/24 01:09:11;;;;;;;16.88;10.73;;;-2.70;99.90;;;;;;5007884;28;20178;-73
2021/12/24 01:11:37;;;;;;;22.38;10.43;;;-2.80;99.90;;;;;;5009259;28;20208;-73
2021/12/24 01:14:04;;;;;;;16.20;10.10;;;-2.90;99.90;;;;;;5009395;28;20240;-74
2021/12/24 01:16:41;;;;;;;22.17;9.80;;;-2.80;99.90;;;;;;5009482;28;20155;-74
2021/12/24 01:19:16;;;;;;;18.65;10.23;;;-2.90;99.90;;;;;;5011311;28;20177;-74
2021/12/24 01:24:31;;;;;;;19.90;9.27;;;-3.00;99.90;;;;;;5029129;28;20186;-73
2021/12/24 01:42:49;;;;;;;22.70;10.27;;;-3.10;99.90;;;;;;5032393;28;20193;-73
2021/12/24 01:45:19;;;;;;;22.60;11.93;;;-3.10;99.90;;;;;;5032369;28;20159;-73
2021/12/24 01:47:46;;;;;;;23.48;11.10;;;-3.10;99.90;;;;;;5014665;28;20166;-73
2021/12/24 01:50:13;;;;;;;24.23;12.40;;;-3.10;99.90;;;;;;5032352;28;20169;-73
2021/12/24 01:52:40;;;;;;;27.38;10.88;;;-3.10;99.90;;;;;;5031781;28;20233;-72
2021/12/24 01:55:10;;;;;;;26.02;10.30;;;-3.10;99.90;;;;;;5032363;28;20226;-72
2021/12/24 01:57:38;;;;;;;21.58;9.98;;;-3.10;99.90;;;;;;5032207;28;20162;-73
2021/12/24 02:00:06;;;;;;;18.70;11.43;;;-3.10;99.90;;;;;;5031962;28;20754;-72
2021/12/24 02:02:33;;;;;;;22.65;10.20;;;-3.10;99.90;;;;;;5032029;28;20193;-74
2021/12/24 02:04:58;;;;;;;17.83;9.13;;;-3.00;99.90;;;;;;5032014;28;20531;-74
2021/12/24 02:07:24;;;;;;;22.95;10.00;;;-3.00;99.90;;;;;;5031992;28;20158;-72
2021/12/24 02:09:53;;;;;;;22.33;10.40;;;-3.10;99.90;;;;;;5031846;28;20192;-75
2021/12/24 02:12:19;;;;;;;17.17;10.77;;;-3.10;99.90;;;;;;5031684;28;20670;-74
2021/12/24 02:14:49;;;;;;;21.20;9.98;;;-3.10;99.90;;;;;;5031868;28;20269;-73
2021/12/24 02:28:35;;;;;;;21.80;12.00;;;-3.00;99.90;;;;;;5031591;28;20176;-73
2021/12/24 02:31:02;;;;;;;20.33;10.40;;;-3.10;99.90;;;;;;5031467;28;20190;-73
2021/12/24 02:33:28;;;;;;;16.67;10.05;;;-3.10;99.90;;;;;;5031494;28;20205;-75
2021/12/24 02:35:54;;;;;;;19.52;10.23;;;-3.10;99.90;;;;;;5031594;28;20158;-72
2021/12/24 02:38:20;;;;;;;16.90;9.75;;;-3.20;99.90;;;;;;5031563;28;20558;-72
2021/12/24 02:40:46;;;;;;;25.15;9.98;;;-3.20;99.90;;;;;;5031353;28;20162;-73
2021/12/24 02:43:16;;;;;;;17.55;10.25;;;-3.20;99.90;;;;;;5031411;28;20186;-72
2021/12/24 02:45:44;;;;;;;17.10;9.80;;;-3.10;99.90;;;;;;5031303;28;20162;-72
2021/12/24 02:48:46;;;;;;;22.67;10.77;;;-3.00;99.90;;;;;;5030050;28;20170;-72
2021/12/24 02:53:58;;;;;;;17.23;9.00;;;-3.00;99.90;;;;;;5031164;28;20177;-72
2021/12/24 02:56:31;;;;;;;16.33;8.57;;;-3.00;99.90;;;;;;5031071;28;20227;-72
2021/12/24 02:59:04;;;;;;;17.73;10.77;;;-2.80;99.90;;;;;;5030878;28;20161;-75
2021/12/24 03:01:35;;;;;;;18.27;10.02;;;-2.80;99.90;;;;;;5031006;28;20220;-72
2021/12/24 03:04:01;;;;;;;22.35;10.73;;;-2.90;99.90;;;;;;5031040;28;20157;-72
2021/12/24 03:06:32;;;;;;;16.98;11.50;;;-3.00;99.90;;;;;;5030964;28;20663;-72
2021/12/24 03:08:58;;;;;;;21.38;9.90;;;-3.00;99.90;;;;;;5030625;28;20250;-74
2021/12/24 03:11:25;;;;;;;20.20;10.48;;;-3.00;99.90;;;;;;5030651;28;20201;-75
2021/12/24 03:13:52;;;;;;;27.00;9.18;;;-3.00;99.90;;;;;;5030956;28;20173;-75
2021/12/24 03:16:19;;;;;;;17.00;9.93;;;-3.10;99.90;;;;;;5030838;28;20181;-74
2021/12/24 03:18:47;;;;;;;25.40;10.30;;;-3.00;99.90;;;;;;5030522;28;20158;-72
2021/12/24 03:21:25;;;;;;;19.63;10.10;;;-3.00;99.90;;;;;;5012868;28;20193;-72
2021/12/24 03:26:35;;;;;;;21.13;8.95;;;-3.10;99.90;;;;;;5030615;28;20162;-74
2021/12/24 03:29:04;;;;;;;16.20;8.38;;;-3.10;99.90;;;;;;5012700;28;20224;-74
2021/12/24 03:31:30;;;;;;;20.38;10.02;;;-3.10;99.90;;;;;;5030221;28;20190;-74
2021/12/24 03:33:56;;;;;;;20.75;11.48;;;-3.10;99.90;;;;;;5012558;28;20232;-74
2021/12/24 03:36:24;;;;;;;24.98;13.05;;;-3.00;99.90;;;;;;5030219;28;20161;-74
2021/12/24 03:38:52;;;;;;;34.13;12.38;;;-3.00;99.90;;;;;;5030414;28;20161;-74
2021/12/24 03:41:19;;;;;;;22.60;11.50;;;-2.90;99.90;;;;;;5030000;28;20197;-73
2021/12/24 03:43:45;;;;;;;25.23;10.13;;;-2.90;99.90;;;;;;5030229;28;20162;-72
2021/12/24 03:46:15;;;;;;;17.77;9.48;;;-2.90;99.90;;;;;;5030041;28;20230;-72
2021/12/24 03:48:50;;;;;;;22.17;10.48;;;-3.00;99.90;;;;;;5030297;28;20205;-73
2021/12/24 03:56:30;;;;;;;16.77;9.93;;;-3.00;99.90;;;;;;5030002;28;20165;-74
2021/12/24 03:58:55;;;;;;;18.33;9.27;;;-3.10;99.90;;;;;;5011687;28;20197;-74
2021/12/24 04:01:21;;;;;;;21.90;10.57;;;-3.10;99.90;;;;;;5029847;28;20206;-75
2021/12/24 04:03:47;;;;;;;21.15;9.27;;;-3.20;99.90;;;;;;5029752;28;20530;-73
2021/12/24 04:06:13;;;;;;;16.73;10.07;;;-3.30;99.90;;;;;;5029722;28;20155;-74
2021/12/24 04:08:39;;;;;;;17.70;9.82;;;-3.40;99.90;;;;;;5029506;28;20189;-74
2021/12/24 04:11:05;;;;;;;20.30;8.95;;;-3.40;99.90;;;;;;5029498;28;20565;-74
2021/12/24 04:13:32;;;;;;;21.70;9.27;;;-3.50;99.90;;;;;;5029556;28;20198;-74
2021/12/24 04:15:59;;;;;;;13.75;8.00;;;-3.40;99.90;;;;;;5029609;28;20166;-75
2021/12/24 04:26:24;;;;;;;21.35;9.90;;;-3.60;99.90;;;;;;5029506;28;20177;-73
2021/12/24 04:28:50;;;;;;;18.48;10.18;;;-3.70;99.90;;;;;;5029431;28;20249;-74
2021/12/24 04:31:18;;;;;;;19.80;8.90;;;-3.80;99.90;;;;;;5029299;28;20738;-72
2021/12/24 04:33:47;;;;;;;12.95;8.95;;;-3.80;99.90;;;;;;5029378;28;20185;-73
2021/12/24 04:52:35;;;;;;;24.45;11.88;;;-3.90;99.90;;;;;;5029157;28;20209;-74
2021/12/24 05:03:26;;;;;;;24.35;9.98;;;-3.90;99.90;;;;;;5029252;28;20178;-74
2021/12/24 05:06:05;;;;;;;21.02;10.65;;;-3.90;99.90;;;;;;5029029;28;20208;-74
2021/12/24 05:08:41;;;;;;;23.70;10.55;;;-3.90;99.90;;;;;;5029019;28;20670;-73
2021/12/24 05:11:10;;;;;;;24.27;10.07;;;-3.80;99.90;;;;;;5031183;28;20197;-74
2021/12/24 05:13:38;;;;;;;26.80;11.00;;;-3.80;99.90;;;;;;5032908;28;20185;-74
2021/12/24 05:16:22;;;;;;;16.38;10.35;;;-3.70;99.90;;;;;;5032963;28;20154;-74
2021/12/24 05:21:33;;;;;;;17.38;9.05;;;-3.80;99.90;;;;;;5032789;28;20261;-74
2021/12/24 05:24:05;;;;;;;18.88;8.63;;;-3.80;99.90;;;;;;5032955;28;20165;-74
2021/12/24 05:26:32;;;;;;;20.38;10.68;;;-3.80;99.90;;;;;;5032778;28;20159;-74
2021/12/24 05:28:59;;;;;;;22.90;11.63;;;-3.80;99.90;;;;;;5032777;28;20178;-74
2021/12/24 05:31:25;;;;;;;22.05;10.45;;;-3.80;99.90;;;;;;5032517;28;20193;-73
2021/12/24 05:33:51;;;;;;;19.63;9.05;;;-3.80;99.90;;;;;;5032603;28;20154;-74
2021/12/24 05:36:17;;;;;;;29.25;10.43;;;-3.90;99.90;;;;;;5032628;28;20181;-74
2021/12/24 05:38:44;;;;;;;22.70;10.77;;;-3.90;99.90;;;;;;5032528;28;20178;-73
2021/12/24 05:41:10;;;;;;;15.40;10.35;;;-3.90;99.90;;;;;;5032459;28;20186;-74
2021/12/24 05:43:37;;;;;;;18.52;9.32;;;-3.90;99.90;;;;;;5032298;28;20170;-73
2021/12/24 05:46:03;;;;;;;15.98;7.72;;;-3.90;99.90;;;;;;5032428;28;20170;-74
2021/12/24 05:48:29;;;;;;;17.33;10.35;;;-4.00;99.90;;;;;;5032338;28;20164;-74
2021/12/24 05:50:55;;;;;;;20.92;10.40;;;-3.90;99.90;;;;;;5032206;28;20193;-74
2021/12/24 05:53:21;;;;;;;23.80;9.43;;;-4.00;99.90;;;;;;5032161;28;20205;-75
2021/12/24 05:55:48;;;;;;;18.63;10.40;;;-3.90;99.90;;;;;;5032369;28;20150;-74
2021/12/24 05:58:14;;;;;;;22.70;10.80;;;-3.80;99.90;;;;;;5032169;28;20158;-72
2021/12/24 06:00:40;;;;;;;18.85;10.38;;;-3.70;99.90;;;;;;5031795;28;20213;-73
2021/12/24 06:03:07;;;;;;;13.40;8.48;;;-3.60;99.90;;;;;;5031995;28;20166;-72
2021/12/24 06:05:35;;;;;;;21.08;10.68;;;-3.50;99.90;;;;;;5032021;28;20169;-75
2021/12/24 06:08:01;;;;;;;20.40;11.27;;;-3.70;99.90;;;;;;5031707;28;20189;-72
2021/12/24 06:10:27;;;;;;;20.15;9.82;;;-3.60;99.90;;;;;;5031886;28;20181;-72
2021/12/24 06:12:53;;;;;;;18.63;9.80;;;-3.60;99.90;;;;;;5031758;28;20210;-72
2021/12/24 06:15:23;;;;;;;19.88;10.18;;;-3.60;99.90;;;;;;5031680;28;20161;-74
2021/12/24 06:17:53;;;;;;;19.35;9.40;;;-3.70;99.90;;;;;;5031744;28;20158;-72
2021/12/24 06:20:20;;;;;;;27.50;8.93;;;-3.70;99.90;;;;;;5031698;28;20162;-73
2021/12/24 06:22:47;;;;;;;16.55;9.98;;;-3.70;99.90;;;;;;5031495;28;20225;-74
2021/12/24 06:25:13;;;;;;;18.60;8.82;;;-3.70;99.90;;;;;;5031499;28;20154;-74
2021/12/24 06:27:39;;;;;;;12.98;9.63;;;-3.70;99.90;;;;;;5031599;28;20221;-74
2021/12/24 06:30:07;;;;;;;19.38;9.80;;;-3.70;99.90;;;;;;5013800;28;20181;-72
2021/12/24 06:32:33;;;;;;;16.85;8.70;;;-3.70;99.90;;;;;;5031319;28;20283;-73
2021/12/24 06:34:59;;;;;;;21.40;10.07;;;-3.70;99.90;;;;;;5031256;28;20193;-74
2021/12/24 06:37:25;;;;;;;17.83;10.93;;;-3.60;99.90;;;;;;5031264;28;20150;-74
2021/12/24 06:39:51;;;;;;;21.85;9.57;;;-3.60;99.90;;;;;;5031344;28;20162;-74
2021/12/24 06:42:17;;;;;;;17.88;10.55;;;-3.50;99.90;;;;;;5031200;28;20245;-74
2021/12/24 06:44:43;;;;;;;15.63;9.07;;;-3.50;99.90;;;;;;5031056;28;20178;-73
2021/12/24 06:47:09;;;;;;;19.52;9.52;;;-3.50;99.90;;;;;;5013640;28;20209;-74
2021/12/24 06:49:36;;;;;;;26.80;11.73;;;-3.40;99.90;;;;;;5013591;28;20194;-74
2021/12/24 06:52:03;;;;;;;21.02;9.98;;;-3.30;99.90;;;;;;5030845;28;20197;-74
2021/12/24 06:54:31;;;;;;;13.98;9.38;;;-3.30;99.90;;;;;;5031111;28;20162;-74
2021/12/24 06:56:57;;;;;;;17.33;10.43;;;-3.20;99.90;;;;;;5013432;28;20170;-74
2021/12/24 06:59:23;;;;;;;21.00;9.50;;;-3.10;99.90;;;;;;5030973;28;20217;-74
2021/12/24 07:01:49;;;;;;;17.00;8.27;;;-3.00;99.90;;;;;;5030888;28;20269;-74
2021/12/24 07:04:14;;;;;;;26.35;11.35;;;-2.90;99.90;;;;;;5030887;28;20158;-74
2021/12/24 07:06:45;;;;;;;20.35;10.10;;;-2.80;99.90;;;;;;5030794;28;20161;-74
2021/12/24 07:09:13;;;;;;;20.75;10.98;;;-2.70;99.90;;;;;;5030507;28;20177;-74
2021/12/24 07:11:40;;;;;;;18.05;9.82;;;-2.60;99.90;;;;;;5030379;28;20284;-74
2021/12/24 07:14:06;;;;;;;17.63;10.10;;;-2.50;99.90;;;;;;5015857;28;20181;-74
2021/12/24 07:16:32;;;;;;;18.80;9.75;;;-2.40;99.90;;;;;;4993498;28;20178;-74
2021/12/24 07:18:58;;;;;;;18.30;10.90;;;-2.20;99.90;;;;;;5013017;28;20174;-74
2021/12/24 07:21:24;;;;;;;24.00;11.38;;;-2.10;99.90;;;;;;5012799;28;20597;-74
2021/12/24 07:23:50;;;;;;;19.95;11.98;;;-2.10;99.90;;;;;;5012740;28;20185;-74
2021/12/24 07:26:16;;;;;;;21.38;12.20;;;-2.00;99.90;;;;;;5030389;28;20169;-73
2021/12/24 07:28:42;;;;;;;21.33;10.05;;;-1.90;99.90;;;;;;5030376;28;20163;-74
2021/12/24 07:31:07;;;;;;;19.15;9.25;;;-2.00;99.90;;;;;;5030204;28;20196;-74
2021/12/24 07:33:33;;;;;;;17.88;10.48;;;-2.00;99.90;;;;;;5029686;28;20190;-74
2021/12/24 07:35:59;;;;;;;20.02;10.73;;;-1.90;99.90;;;;;;5030218;28;20653;-74
2021/12/24 07:38:25;;;;;;;22.98;11.52;;;-1.80;99.90;;;;;;5012485;28;20174;-74
2021/12/24 07:40:51;;;;;;;16.98;9.95;;;-1.80;99.90;;;;;;5030090;28;20241;-74
2021/12/24 07:43:17;;;;;;;16.85;9.18;;;-1.80;99.90;;;;;;5029911;28;20154;-74
2021/12/24 07:45:45;;;;;;;15.30;9.32;;;-1.70;99.90;;;;;;5030102;28;20165;-74
2021/12/24 07:48:13;;;;;;;22.52;10.65;;;-1.60;99.90;;;;;;5029995;28;20296;-74
2021/12/24 07:53:10;;;;;;;15.63;9.02;;;-1.50;99.90;;;;;;5029938;28;20193;-74
2021/12/24 07:55:37;;;;;;;17.70;10.45;;;-1.40;99.90;;;;;;5012157;28;20233;-74
2021/12/24 07:58:04;;;;;;;22.02;10.70;;;-1.40;99.90;;;;;;5029769;28;20620;-74
2021/12/24 08:00:31;;;;;;;23.88;10.73;;;-1.30;99.90;;;;;;5028956;28;20698;-74
2021/12/24 08:03:01;;;;;;;18.02;9.38;;;-1.20;99.90;;;;;;5029067;28;20158;-74
2021/12/24 08:05:27;;;;;;;21.42;10.48;;;-1.10;99.90;;;;;;5029103;28;20161;-74
2021/12/24 08:07:54;;;;;;;17.50;8.93;;;-1.10;99.90;;;;;;5011027;28;20208;-74
2021/12/24 08:10:24;;;;;;;18.20;10.43;;;-1.10;99.90;;;;;;5028682;28;20240;-74
2021/12/24 08:12:50;;;;;;;20.13;8.80;;;-1.10;99.90;;;;;;5028708;28;20198;-74
2021/12/24 08:15:17;;;;;;;19.33;9.88;;;-1.10;99.90;;;;;;5028834;28;20185;-74
2021/12/24 08:17:44;;;;;;;21.58;10.40;;;-1.10;99.90;;;;;;5028695;28;20166;-74
2021/12/24 08:20:12;;;;;;;17.80;9.75;;;-1.00;99.90;;;;;;5028526;28;20217;-73
2021/12/24 08:22:38;;;;;;;21.75;9.27;;;-0.90;99.90;;;;;;5010922;28;20583;-74
2021/12/24 08:25:07;;;;;;;14.70;8.57;;;-0.90;99.90;;;;;;5028763;28;20162;-74
2021/12/24 08:27:34;;;;;;;15.32;9.35;;;-0.90;99.90;;;;;;5028619;28;20165;-74
2021/12/24 08:30:01;;;;;;;17.10;8.93;;;-0.90;99.90;;;;;;5028631;28;20182;-75
2021/12/24 08:32:27;;;;;;;17.00;10.60;;;-0.80;99.90;;;;;;5028371;28;20194;-74
2021/12/24 08:34:55;;;;;;;19.50;10.82;;;-0.80;99.90;;;;;;5028483;28;20158;-74
2021/12/24 08:37:21;;;;;;;20.55;9.77;;;-0.70;99.90;;;;;;5028448;28;20185;-73
2021/12/24 08:39:47;;;;;;;25.33;11.10;;;-0.50;99.90;;;;;;5028297;28;20165;-74
2021/12/24 08:42:13;;;;;;;22.00;10.98;;;-0.30;99.90;;;;;;5028357;28;20193;-74
2021/12/24 08:44:39;;;;;;;16.92;9.05;;;0.00;99.90;;;;;;5009622;28;20200;-74
2021/12/24 08:47:06;;;;;;;36.03;9.60;;;0.20;99.90;;;;;;5010533;28;20174;-74
2021/12/24 08:49:32;;;;;;;16.90;8.85;;;0.50;99.90;;;;;;5028242;28;20182;-75
2021/12/24 08:51:58;;;;;;;18.38;9.88;;;0.60;99.90;;;;;;5027958;28;20201;-75
2021/12/24 08:54:25;;;;;;;24.88;9.65;;;0.70;99.90;;;;;;5027842;28;20269;-74
2021/12/24 08:56:55;;;;;;;19.33;8.90;;;0.90;99.90;;;;;;5010138;28;20174;-75
2021/12/24 08:59:23;;;;;;;16.10;8.63;;;1.00;99.90;;;;;;4984765;28;1249863;-74
2021/12/24 09:01:53;;;;;;;13.93;7.60;;;1.20;99.90;;;;;;5028867;28;20204;-74
2021/12/24 09:04:19;;;;;;;10.60;6.38;;;1.40;99.90;;;;;;5028987;28;20165;-74
2021/12/24 09:06:45;;;;;;;18.85;6.43;;;1.80;99.90;;;;;;5028865;28;20670;-75
2021/12/24 09:09:11;;;;;;;8.50;5.70;;;2.00;99.90;;;;;;5028395;28;20205;-75
2021/12/24 09:11:39;;;;;;;13.63;5.53;;;2.00;99.90;;;;;;5010759;28;20193;-74
2021/12/24 09:14:05;;;;;;;9.45;5.40;;;2.10;99.90;;;;;;5028591;28;20154;-74
2021/12/24 09:16:34;;;;;;;8.68;5.47;;;2.20;99.90;;;;;;5028732;28;20166;-74
2021/12/24 09:19:05;;;;;;;6.88;4.30;;;2.40;99.90;;;;;;5028637;28;20158;-74
2021/12/24 09:21:31;;;;;;;10.70;4.57;;;2.50;99.90;;;;;;5028561;28;20324;-75
2021/12/24 09:23:58;;;;;;;7.85;4.68;;;2.70;99.90;;;;;;5028602;28;20157;-75
2021/12/24 09:26:32;;;;;;;9.32;5.43;;;3.00;99.90;;;;;;5028598;28;20178;-75
2021/12/24 09:28:59;;;;;;;12.13;5.18;;;3.10;99.90;;;;;;5028553;28;20176;-75
2021/12/24 09:31:26;;;;;;;8.45;5.65;;;3.30;99.90;;;;;;5010738;28;20205;-74
2021/12/24 09:33:53;;;;;;;8.88;5.22;;;3.60;99.90;;;;;;5010809;28;20190;-75
2021/12/24 09:36:24;;;;;;;13.50;6.88;;;3.90;99.90;;;;;;5028358;28;20185;-75
2021/12/24 09:38:52;;;;;;;14.18;8.45;;;4.40;99.90;;;;;;5010485;28;20269;-75
2021/12/24 09:41:19;;;;;;;20.10;7.13;;;4.20;99.90;;;;;;5028334;28;20194;-75
2021/12/24 09:43:45;;;;;;;14.50;7.53;;;4.50;99.90;;;;;;5028359;28;20147;-74
2021/12/24 09:46:12;;;;;;;13.00;6.25;;;6.10;99.90;;;;;;5028345;28;20162;-74
2021/12/24 09:48:39;;;;;;;10.25;5.88;;;7.60;99.90;;;;;;5028184;28;20150;-74
2021/12/24 09:51:06;;;;;;;6.85;4.47;;;7.90;99.90;;;;;;5028200;28;20197;-74
2021/12/24 09:53:32;;;;;;;13.07;4.88;;;7.20;99.90;;;;;;5010568;28;20197;-74
2021/12/24 09:55:58;;;;;;;8.48;4.65;;;7.60;99.90;;;;;;5028484;28;20219;-74
2021/12/24 09:58:25;;;;;;;7.78;3.53;;;7.80;99.90;;;;;;5031789;28;20158;-74
2021/12/24 10:00:51;;;;;;;16.75;5.03;;;7.10;99.90;;;;;;5045076;28;20330;-74
2021/12/24 10:03:35;;;;;;;4.93;3.63;;;7.00;99.90;;;;;;5050157;28;20188;-74
2021/12/24 10:06:03;;;;;;;9.93;4.80;;;7.10;99.90;;;;;;5051492;28;20161;-74
2021/12/24 10:08:31;;;;;;;16.15;4.90;;;7.50;99.90;;;;;;5051506;28;20211;-74
2021/12/24 10:11:08;;;;;;;6.80;4.03;;;7.70;99.90;;;;;;5071158;28;20212;-74
2021/12/24 10:13:43;;;;;;;10.05;4.10;;;7.30;99.90;;;;;;5070089;28;20200;-74
2021/12/24 10:16:22;;;;;;;10.57;4.68;;;6.80;99.90;;;;;;5071293;28;20172;-74
2021/12/24 10:18:50;;;;;;;10.68;4.20;;;7.50;99.90;;;;;;5070212;28;20159;-74
2021/12/24 10:21:27;;;;;;;10.27;4.75;;;7.70;99.90;;;;;;5051154;28;20239;-74
2021/12/24 10:23:56;;;;;;;12.98;4.13;;;8.20;99.90;;;;;;5049928;28;20177;-74
2021/12/24 10:26:48;;;;;;;10.48;5.30;;;8.00;99.90;;;;;;5051036;28;20166;-74
2021/12/24 10:29:43;;;;;;;8.90;4.25;;;8.00;99.90;;;;;;5050929;28;20162;-74
2021/12/24 10:32:20;;;;;;;13.73;4.38;;;8.10;99.90;;;;;;5050724;28;20205;-75
2021/12/24 10:34:46;;;;;;;8.07;4.18;;;9.40;99.90;;;;;;5049515;28;20165;-74
2021/12/24 10:37:23;;;;;;;10.60;5.30;;;10.40;99.90;;;;;;5050761;28;20165;-74
2021/12/24 10:39:55;;;;;;;11.43;5.03;;;11.50;99.90;;;;;;5050778;28;20165;-74
2021/12/24 10:42:39;;;;;;;11.27;5.05;;;11.40;99.90;;;;;;5050722;28;20218;-74
2021/12/24 10:45:20;;;;;;;11.25;5.10;;;10.60;99.90;;;;;;5050917;28;20161;-74
2021/12/24 10:47:47;;;;;;;9.00;4.22;;;9.90;99.90;;;;;;5050490;28;20149;-76
2021/12/24 10:53:11;;;;;;;10.07;4.68;;;10.60;99.90;;;;;;5050533;28;20217;-74
2021/12/24 10:55:51;;;;;;;13.00;5.78;;;10.70;99.90;;;;;;5050733;28;20149;-74
2021/12/24 10:58:20;;;;;;;14.10;5.05;;;10.90;99.90;;;;;;5050630;28;20188;-74
2021/12/24 11:00:53;;;;;;;13.70;5.72;;;11.00;99.90;;;;;;5033522;28;20216;-74
2021/12/24 11:03:22;;;;;;;15.23;4.57;;;11.10;99.90;;;;;;5030475;28;20177;-74
2021/12/24 11:05:52;;;;;;;9.57;5.18;;;11.00;99.90;;;;;;5030660;28;20163;-74
2021/12/24 11:08:21;;;;;;;7.28;4.38;;;10.20;99.90;;;;;;5029561;28;20185;-74
2021/12/24 11:10:54;;;;;;;10.68;4.88;;;9.80;99.90;;;;;;5012625;28;20277;-74
2021/12/24 11:13:29;;;;;;;11.00;4.93;;;9.60;99.90;;;;;;5030219;28;20241;-74
2021/12/24 11:15:57;;;;;;;10.57;4.75;;;9.50;99.90;;;;;;5030422;28;20154;-74
2021/12/24 11:18:26;;;;;;;11.77;4.63;;;9.90;99.90;;;;;;5030178;28;20162;-74
2021/12/24 11:20:54;;;;;;;9.07;4.30;;;10.60;99.90;;;;;;5009139;28;20209;-75
2021/12/24 11:23:22;;;;;;;7.07;4.28;;;11.10;99.90;;;;;;4992928;28;20274;-74
2021/12/24 11:25:52;;;;;;;5.80;3.70;;;11.90;99.90;;;;;;5010575;28;20198;-74
2021/12/24 11:28:19;;;;;;;12.60;4.57;;;12.80;99.90;;;;;;5010541;28;20162;-74
2021/12/24 11:30:49;;;;;;;9.70;5.07;;;13.10;99.90;;;;;;4992762;28;20174;-75
2021/12/24 11:33:18;;;;;;;9.35;4.85;;;13.10;99.90;;;;;;4992797;28;20291;-75
2021/12/24 11:35:45;;;;;;;10.82;5.35;;;12.20;99.90;;;;;;5010343;28;20162;-75
2021/12/24 11:38:15;;;;;;;9.10;4.45;;;11.50;99.90;;;;;;5010218;28;20163;-75
2021/12/24 11:40:41;;;;;;;11.30;4.47;;;10.60;99.90;;;;;;5010205;28;20162;-74
2021/12/24 11:43:07;;;;;;;8.07;3.60;;;9.90;99.90;;;;;;5010215;28;20227;-74
2021/12/24 11:45:33;;;;;;;6.90;3.67;;;9.80;99.90;;;;;;5010213;28;20159;-74
2021/12/24 11:48:01;;;;;;;12.48;4.28;;;9.90;99.90;;;;;;5010124;28;20287;-74
2021/12/24 11:50:28;;;;;;;7.43;4.03;;;10.10;99.90;;;;;;5010302;28;20155;-74
2021/12/24 11:53:08;;;;;;;12.88;3.97;;;10.20;99.90;;;;;;5009810;28;20221;-74
2021/12/24 11:55:42;;;;;;;14.57;4.05;;;10.40;99.90;;;;;;5009931;28;20186;-74
2021/12/24 11:58:19;;;;;;;7.60;4.05;;;10.30;99.90;;;;;;5009893;28;20181;-74
2021/12/24 12:00:48;;;;;;;10.45;4.40;;;10.00;99.90;;;;;;5026178;28;20231;-74
2021/12/24 12:03:34;;;;;;;8.55;4.38;;;9.80;99.90;;;;;;5029486;28;20175;-74
2021/12/24 12:06:03;;;;;;;13.15;4.53;;;9.60;99.90;;;;;;5029427;28;20169;-74
2021/12/24 12:08:37;;;;;;;13.98;4.57;;;9.20;99.90;;;;;;5031162;28;20524;-74
2021/12/24 12:11:16;;;;;;;6.60;3.70;;;8.90;99.90;;;;;;5049141;28;20247;-74
2021/12/24 12:13:49;;;;;;;7.65;4.55;;;8.70;99.90;;;;;;5047692;28;20235;-74
2021/12/24 12:16:20;;;;;;;11.30;5.28;;;8.60;99.90;;;;;;5049037;28;20184;-74
2021/12/24 12:19:02;;;;;;;14.07;3.92;;;8.60;99.90;;;;;;5048721;28;20164;-74
2021/12/24 12:22:11;;;;;;;6.22;3.92;;;8.50;99.90;;;;;;5048868;28;20204;-74
2021/12/24 12:26:53;;;;;;;10.90;4.47;;;8.20;99.90;;;;;;5049154;28;20486;-74
2021/12/24 12:29:41;;;;;;;9.32;4.90;;;8.20;99.90;;;;;;5047585;28;20173;-74
2021/12/24 12:32:16;;;;;;;11.95;4.45;;;8.20;99.90;;;;;;5047516;28;20204;-74
2021/12/24 12:34:45;;;;;;;9.93;4.22;;;8.10;99.90;;;;;;5048814;28;20224;-74
2021/12/24 12:37:31;;;;;;;8.10;4.50;;;7.90;99.90;;;;;;5048852;28;20168;-74
2021/12/24 12:40:22;;;;;;;9.25;4.80;;;8.00;99.90;;;;;;5048712;28;20158;-74
2021/12/24 12:42:48;;;;;;;9.27;5.57;;;8.30;99.90;;;;;;5046720;28;20201;-74
2021/12/24 12:45:15;;;;;;;9.65;4.35;;;8.30;99.90;;;;;;5048907;28;20185;-74
2021/12/24 12:47:57;;;;;;;10.15;4.20;;;8.30;99.90;;;;;;5048740;28;20172;-74
2021/12/24 12:50:25;;;;;;;10.45;4.72;;;8.50;99.90;;;;;;5048633;28;20185;-74
2021/12/24 12:53:11;;;;;;;7.45;5.00;;;8.50;99.90;;;;;;5048731;28;20193;-74
2021/12/24 12:55:40;;;;;;;17.20;5.28;;;8.50;99.90;;;;;;5048388;28;20181;-74
2021/12/24 12:58:20;;;;;;;7.90;4.93;;;8.40;99.90;;;;;;5048809;28;20193;-74
2021/12/24 13:01:09;;;;;;;8.82;4.90;;;8.30;99.90;;;;;;5031749;28;20694;-74
2021/12/24 13:03:57;;;;;;;11.35;5.15;;;8.20;99.90;;;;;;5028922;28;20214;-74
2021/12/24 13:06:45;;;;;;;18.42;6.13;;;8.10;99.90;;;;;;5028745;28;20166;-74
2021/12/24 13:09:12;;;;;;;22.80;10.27;;;8.00;99.90;;;;;;5015397;28;20200;-74
2021/12/24 13:11:44;;;;;;;18.10;8.65;;;8.10;99.90;;;;;;5028613;28;20202;-74
2021/12/24 13:14:12;;;;;;;28.67;8.35;;;7.90;99.90;;;;;;5028513;28;20166;-74
2021/12/24 13:16:42;;;;;;;19.55;8.77;;;7.80;99.90;;;;;;5028453;28;20216;-74
2021/12/24 13:24:49;;;;;;;46.25;17.90;;;7.70;99.90;;;;;;5028726;28;20169;-74
2021/12/24 13:27:16;;;;;;;29.95;12.27;;;7.70;99.90;;;;;;5028679;28;20164;-74
2021/12/24 13:29:42;;;;;;;22.63;8.68;;;7.50;99.90;;;;;;5028489;28;20170;-74
2021/12/24 13:32:08;;;;;;;21.13;9.82;;;7.50;99.90;;;;;;5030376;28;20214;-74
2021/12/24 13:34:36;;;;;;;26.00;10.52;;;7.50;99.90;;;;;;5032362;28;20158;-74
2021/12/24 13:37:14;;;;;;;24.48;9.43;;;7.50;99.90;;;;;;5032264;28;20150;-74
2021/12/24 13:39:50;;;;;;;15.43;9.18;;;7.40;99.90;;;;;;5032160;28;20154;-74
2021/12/24 13:42:17;;;;;;;17.00;9.32;;;7.30;99.90;;;;;;5032068;28;20205;-74
2021/12/24 13:44:47;;;;;;;17.70;8.13;;;7.20;99.90;;;;;;5031984;28;20158;-74
2021/12/24 13:47:33;;;;;;;20.67;8.27;;;7.20;99.90;;;;;;5032010;28;20159;-74
2021/12/24 13:55:31;;;;;;;21.55;11.35;;;6.70;99.90;;;;;;5032145;28;20158;-74
2021/12/24 13:58:03;;;;;;;25.63;10.98;;;6.70;99.90;;;;;;5031938;28;20151;-74
2021/12/24 14:00:32;;;;;;;23.38;10.55;;;6.70;99.90;;;;;;5031782;28;20225;-74
2021/12/24 14:03:00;;;;;;;23.45;9.15;;;6.60;99.90;;;;;;5031891;28;20218;-74
2021/12/24 14:05:27;;;;;;;24.65;10.55;;;6.60;99.90;;;;;;5031817;28;20186;-74
2021/12/24 14:08:08;;;;;;;31.30;12.07;;;6.60;99.90;;;;;;5013788;28;20178;-74
2021/12/24 14:10:35;;;;;;;26.98;12.75;;;6.60;99.90;;;;;;5031500;28;20170;-74
2021/12/24 14:13:07;;;;;;;26.13;11.35;;;6.60;99.90;;;;;;5013880;28;20198;-74
2021/12/24 14:15:46;;;;;;;29.70;13.68;;;6.50;99.90;;;;;;5031581;28;20146;-74
2021/12/24 14:19:03;;;;;;;25.92;13.55;;;6.50;99.90;;;;;;5013771;28;20608;-74
2021/12/24 14:24:13;;;;;;;29.70;12.80;;;6.40;99.90;;;;;;5012022;28;20225;-74
2021/12/24 14:26:46;;;;;;;43.90;13.75;;;6.30;99.90;;;;;;5011752;28;20218;-74
2021/12/24 14:29:22;;;;;;;24.50;11.80;;;6.20;99.90;;;;;;5011900;28;20237;-74
2021/12/24 14:32:01;;;;;;;23.27;13.32;;;6.20;99.90;;;;;;4994098;28;20210;-75
2021/12/24 14:34:48;;;;;;;24.77;12.43;;;6.10;99.90;;;;;;5011692;28;20163;-74
2021/12/24 14:37:23;;;;;;;20.67;11.68;;;5.90;99.90;;;;;;4998609;28;20186;-74
2021/12/24 14:40:11;;;;;;;26.45;11.85;;;5.60;99.90;;;;;;5011454;28;20605;-74
2021/12/24 14:42:39;;;;;;;32.53;12.68;;;5.40;99.90;;;;;;5010690;28;20274;-74
2021/12/24 14:45:23;;;;;;;28.23;13.45;;;5.30;99.90;;;;;;5011512;28;20170;-74
2021/12/24 14:48:25;;;;;;;30.92;12.45;;;5.30;99.90;;;;;;5011230;28;20186;-74
2021/12/24 14:50:57;;;;;;;23.73;12.02;;;5.10;99.90;;;;;;4932004;29;22547;-74